Time;durP1;ratioP1;P1;durP2;ratioP2;P2;SDS_P1;SDS_P2;PMS_P1;PMS_P2;Temp;Humidity;BMP_temperature;BMP_pressure;BME280_temperature;BME280_humidity;BME280_pressure;Samples;Min_cycle;Max_cycle;Signal;HPM_P1;HPM_P2
2020/12/15 00:00:25;;;;;;;16.17;13.90;;;;;;;1.26;100.00;95643.69;1054920;28;20422;-82
2020/12/15 00:00:55;;;;;;;16.73;13.88;;;;;;;1.29;100.00;95638.84;1053299;28;21328;-82
2020/12/15 00:01:26;;;;;;;17.80;13.63;;;;;;;1.29;100.00;95648.50;1053253;28;20027;-82
2020/12/15 00:01:57;;;;;;;18.15;13.77;;;;;;;1.28;100.00;95646.88;1052765;28;20032;-82
2020/12/15 00:02:27;;;;;;;16.38;13.77;;;;;;;1.25;100.00;95642.06;1053325;28;20020;-82
2020/12/15 00:02:57;;;;;;;15.85;13.63;;;;;;;1.31;100.00;95646.50;1053002;28;20465;-82
2020/12/15 00:03:28;;;;;;;17.50;14.30;;;;;;;1.32;100.00;95650.72;1055325;28;20039;-82
2020/12/15 00:03:59;;;;;;;16.17;13.73;;;;;;;1.38;100.00;95655.13;1056969;28;20407;-82
2020/12/15 00:04:29;;;;;;;14.57;12.50;;;;;;;1.31;100.00;95646.50;1054701;28;20102;-82
2020/12/15 00:05:00;;;;;;;15.77;12.93;;;;;;;1.37;100.00;95650.91;1053306;28;20042;-82
2020/12/15 00:05:30;;;;;;;16.27;13.93;;;;;;;1.32;100.00;95648.13;1053338;28;20366;-82
2020/12/15 00:06:01;;;;;;;17.25;13.98;;;;;;;1.29;100.00;95658.94;1053353;28;20023;-82
2020/12/15 00:06:34;;;;;;;19.38;14.60;;;;;;;1.26;100.00;95654.13;1053526;28;20016;-82
2020/12/15 00:07:05;;;;;;;17.73;14.18;;;;;;;1.28;100.00;95646.88;1056086;28;20023;-82
2020/12/15 00:07:36;;;;;;;20.90;15.73;;;;;;;1.22;100.00;95651.13;1057138;28;20491;-82
2020/12/15 00:08:07;;;;;;;18.20;14.73;;;;;;;1.27;100.00;95651.31;1056969;28;20016;-83
2020/12/15 00:08:37;;;;;;;19.33;15.32;;;;;;;1.26;100.00;95654.13;1056949;28;20024;-83
2020/12/15 00:09:07;;;;;;;17.52;14.90;;;;;;;1.27;100.00;95650.50;1056915;28;20050;-82
2020/12/15 00:09:38;;;;;;;17.27;14.10;;;;;;;1.28;100.00;95649.50;1056952;28;20397;-82
2020/12/15 00:10:08;;;;;;;41.47;16.55;;;;;;;1.27;100.00;95647.91;1057334;28;20032;-82
2020/12/15 00:10:40;;;;;;;21.88;15.93;;;;;;;1.22;100.00;95651.13;1057124;28;20019;-83
2020/12/15 00:11:17;;;;;;;19.92;15.63;;;;;;;1.19;100.00;95653.34;1057238;28;20027;-83
2020/12/15 00:11:47;;;;;;;18.50;14.88;;;;;;;1.17;100.00;95649.09;1057324;28;20035;-82
2020/12/15 00:12:17;;;;;;;18.13;14.70;;;;;;;1.13;100.00;95657.53;1057165;28;20055;-83
2020/12/15 00:12:48;;;;;;;19.30;15.48;;;;;;;1.05;100.00;95647.28;1057189;28;20427;-82
2020/12/15 00:13:18;;;;;;;20.67;15.18;;;;;;;1.13;100.00;95650.50;1057028;28;20741;-82
2020/12/15 00:13:49;;;;;;;17.98;14.75;;;;;;;1.23;100.00;95647.50;1057251;28;20016;-82
2020/12/15 00:14:19;;;;;;;18.58;14.90;;;;;;;1.25;100.00;95652.53;1056998;28;20015;-82
2020/12/15 00:14:50;;;;;;;20.20;15.00;;;;;;;1.16;100.00;95651.91;1057187;28;20491;-82
2020/12/15 00:15:20;;;;;;;26.83;16.67;;;;;;;1.11;100.00;95655.13;1057161;28;20027;-82
2020/12/15 00:15:50;;;;;;;20.92;15.52;;;;;;;1.13;100.00;95649.72;1057272;28;20015;-82
2020/12/15 00:16:21;;;;;;;16.23;13.80;;;;;;;1.15;100.00;95648.50;1057172;28;20023;-82
2020/12/15 00:16:56;;;;;;;19.45;15.30;;;;;;;1.15;100.00;95648.50;1057132;28;20019;-82
2020/12/15 00:17:27;;;;;;;17.05;14.23;;;;;;;1.19;100.00;95653.34;1056653;28;20099;-82
2020/12/15 00:17:57;;;;;;;17.35;14.07;;;;;;;1.21;100.00;95653.94;1057011;28;20043;-82
2020/12/15 00:18:28;;;;;;;18.85;15.23;;;;;;;1.21;100.00;95656.53;1056850;28;20020;-82
2020/12/15 00:18:58;;;;;;;19.02;15.65;;;;;;;1.19;100.00;95658.56;1057001;28;20028;-82
2020/12/15 00:19:29;;;;;;;19.00;15.13;;;;;;;1.24;100.00;95661.34;1055924;28;20483;-82
2020/12/15 00:19:59;;;;;;;23.17;15.98;;;;;;;1.06;100.00;95659.31;1053273;28;20483;-82
2020/12/15 00:20:30;;;;;;;21.00;14.52;;;;;;;1.12;100.00;95669.78;1053487;28;20012;-82
2020/12/15 00:21:01;;;;;;;20.67;15.40;;;;;;;1.12;100.00;95668.97;1053357;28;20023;-82
2020/12/15 00:21:32;;;;;;;18.35;14.63;;;;;;;1.15;100.00;95669.38;1053001;28;20028;-82
2020/12/15 00:22:05;;;;;;;18.42;14.38;;;;;;;1.15;100.00;95669.38;1053230;28;20024;-82
2020/12/15 00:22:35;;;;;;;18.88;15.00;;;;;;;1.15;100.00;95663.34;1052864;28;20053;-82
2020/12/15 00:23:06;;;;;;;19.45;14.63;;;;;;;1.17;100.00;95669.19;1051258;28;20090;-82
2020/12/15 00:23:36;;;;;;;18.60;15.10;;;;;;;1.13;100.00;95668.78;1044421;28;20013;-82
2020/12/15 00:24:07;;;;;;;19.02;14.55;;;;;;;1.10;100.00;95661.34;1044660;28;20477;-82
2020/12/15 00:24:38;;;;;;;17.58;14.55;;;;;;;1.10;100.00;95656.13;1042507;28;20009;-82
2020/12/15 00:25:08;;;;;;;26.10;15.00;;;;;;;1.14;100.00;95666.97;1044845;28;20417;-82
2020/12/15 00:25:39;;;;;;;20.65;15.52;;;;;;;1.20;100.00;95668.00;1050369;28;20081;-82
2020/12/15 00:26:10;;;;;;;25.92;17.05;;;;;;;1.17;100.00;95666.56;1048761;28;20020;-82
2020/12/15 00:26:40;;;;;;;22.10;15.90;;;;;;;1.13;100.00;95665.38;1052768;28;20368;-82
2020/12/15 00:27:11;;;;;;;21.02;14.68;;;;;;;1.15;100.00;95673.81;1052905;28;20449;-82
2020/12/15 00:27:41;;;;;;;17.98;14.48;;;;;;;1.16;100.00;95664.97;1052613;28;20012;-82
2020/12/15 00:28:11;;;;;;;17.67;14.82;;;;;;;1.24;100.00;95670.00;1053263;28;20069;-82
2020/12/15 00:28:42;;;;;;;16.25;14.02;;;;;;;1.26;100.00;95675.00;1053349;28;20400;-82
2020/12/15 00:29:13;;;;;;;16.95;14.45;;;;;;;1.23;100.00;95675.41;1052867;28;20507;-82
2020/12/15 00:29:43;;;;;;;16.80;13.45;;;;;;;1.19;100.00;95669.81;1053037;28;20016;-82
2020/12/15 00:30:14;;;;;;;15.30;12.40;;;;;;;1.18;100.00;95668.16;1052772;28;20024;-83
2020/12/15 00:30:44;;;;;;;22.17;14.50;;;;;;;1.21;100.00;95673.00;1052914;28;20012;-82
2020/12/15 00:31:18;;;;;;;32.85;15.98;;;;;;;1.12;100.00;95675.00;1052977;28;20039;-82
2020/12/15 00:31:48;;;;;;;17.40;13.77;;;;;;;1.15;100.00;95674.59;1052766;28;20449;-82
2020/12/15 00:32:18;;;;;;;38.85;17.80;;;;;;;1.10;100.00;95673.59;1053243;28;20012;-82
2020/12/15 00:32:49;;;;;;;20.42;15.55;;;;;;;1.16;100.00;95681.44;1052863;28;20020;-82
2020/12/15 00:33:19;;;;;;;23.15;16.05;;;;;;;1.10;100.00;95674.41;1053000;28;20024;-82
2020/12/15 00:33:50;;;;;;;18.33;15.07;;;;;;;1.15;100.00;95679.03;1052865;28;20023;-81
2020/12/15 00:34:20;;;;;;;26.70;16.45;;;;;;;1.09;100.00;95679.84;1052834;28;20473;-82
2020/12/15 00:34:51;;;;;;;23.15;16.38;;;;;;;1.10;100.00;95682.25;1053259;28;20016;-82
2020/12/15 00:35:21;;;;;;;25.63;16.75;;;;;;;1.07;100.00;95682.66;1053262;28;20374;-82
2020/12/15 00:35:51;;;;;;;23.90;17.52;;;;;;;0.95;100.00;95679.03;1053098;28;20012;-82
2020/12/15 00:36:22;;;;;;;25.63;15.68;;;;;;;0.98;100.00;95673.41;1053144;28;20431;-82
2020/12/15 00:36:56;;;;;;;34.97;17.42;;;;;;;0.99;100.00;95677.59;1053122;28;20016;-82
2020/12/15 00:37:26;;;;;;;44.40;18.80;;;;;;;0.97;100.00;95681.44;1052893;28;20020;-82
2020/12/15 00:37:57;;;;;;;22.38;16.00;;;;;;;1.03;100.00;95678.00;1055403;28;20012;-82
2020/12/15 00:38:27;;;;;;;33.75;17.60;;;;;;;1.02;100.00;95682.41;1052795;28;20077;-82
2020/12/15 00:38:57;;;;;;;25.52;17.83;;;;;;;0.98;100.00;95678.63;1052887;28;20020;-82
2020/12/15 00:39:28;;;;;;;21.50;16.58;;;;;;;0.99;100.00;95672.38;1052838;28;20030;-82
2020/12/15 00:39:58;;;;;;;24.02;17.27;;;;;;;1.03;100.00;95680.63;1052883;28;20008;-82
2020/12/15 00:40:29;;;;;;;18.83;15.52;;;;;;;1.08;100.00;95681.63;1052736;28;20020;-82
2020/12/15 00:40:59;;;;;;;21.25;15.73;;;;;;;1.12;100.00;95672.41;1052984;28;20025;-82
2020/12/15 00:41:30;;;;;;;21.38;15.88;;;;;;;1.12;100.00;95685.44;1052910;28;20020;-82
2020/12/15 00:42:00;;;;;;;22.52;15.90;;;;;;;1.08;100.00;95683.44;1053062;28;20113;-82
2020/12/15 00:42:31;;;;;;;21.30;15.88;;;;;;;1.10;100.00;95690.06;1053132;28;20418;-82
2020/12/15 00:43:02;;;;;;;21.27;16.40;;;;;;;1.08;100.00;95684.25;1052849;28;20028;-81
2020/12/15 00:43:32;;;;;;;20.30;15.55;;;;;;;1.07;100.00;95682.66;1053066;28;20085;-82
2020/12/15 00:44:03;;;;;;;27.38;17.42;;;;;;;1.07;100.00;95682.66;1053067;28;20023;-82
2020/12/15 00:44:33;;;;;;;24.60;17.92;;;;;;;1.07;100.00;95687.06;1053094;28;20032;-82
2020/12/15 00:45:04;;;;;;;21.27;15.88;;;;;;;1.10;100.00;95682.25;1053018;28;20110;-81
2020/12/15 00:45:35;;;;;;;21.13;15.65;;;;;;;1.12;100.00;95679.44;1053197;28;20099;-82
2020/12/15 00:46:05;;;;;;;20.67;15.80;;;;;;;1.12;100.00;95689.88;1053727;28;20023;-83
2020/12/15 00:46:36;;;;;;;19.45;15.85;;;;;;;1.06;100.00;95686.22;1053116;28;20031;-80
2020/12/15 00:47:06;;;;;;;19.98;15.80;;;;;;;1.07;100.00;95682.66;1053125;28;20381;-78
2020/12/15 00:47:36;;;;;;;20.52;15.20;;;;;;;1.19;100.00;95685.47;1053143;28;20491;-80
2020/12/15 00:48:07;;;;;;;20.50;15.82;;;;;;;1.13;100.00;95687.06;1053827;28;20012;-80
2020/12/15 00:48:39;;;;;;;18.08;14.63;;;;;;;1.14;100.00;95683.44;1057346;28;20475;-81
2020/12/15 00:49:09;;;;;;;18.92;15.57;;;;;;;1.17;100.00;95683.03;1053439;28;20024;-82
2020/12/15 00:49:40;;;;;;;22.30;16.63;;;;;;;1.14;100.00;95678.22;1053036;28;20020;-81
2020/12/15 00:50:12;;;;;;;25.38;17.45;;;;;;;1.10;100.00;95686.66;1057196;28;20016;-82
2020/12/15 00:50:43;;;;;;;25.02;17.48;;;;;;;1.10;100.00;95687.47;1057048;28;20042;-82
2020/12/15 00:51:15;;;;;;;22.15;15.32;;;;;;;1.15;100.00;95679.03;1052982;28;20427;-82
2020/12/15 00:51:48;;;;;;;21.45;16.13;;;;;;;1.20;100.00;95673.22;1053286;28;20058;-82
2020/12/15 00:52:22;;;;;;;19.50;15.80;;;;;;;1.20;100.00;95673.22;1053187;28;20020;-82
2020/12/15 00:52:53;;;;;;;22.15;15.60;;;;;;;1.17;100.00;95672.59;1048537;28;20021;-83
2020/12/15 00:53:23;;;;;;;19.50;14.98;;;;;;;1.21;100.00;95674.81;1045774;28;20018;-82
2020/12/15 00:53:54;;;;;;;23.02;15.57;;;;;;;1.12;100.00;95669.78;1052574;28;20016;-82
2020/12/15 00:54:24;;;;;;;21.63;15.82;;;;;;;1.16;100.00;95675.41;1053100;28;20023;-82
2020/12/15 00:54:54;;;;;;;20.55;16.58;;;;;;;1.19;100.00;95674.22;1056869;28;20027;-82
2020/12/15 00:55:26;;;;;;;18.90;15.05;;;;;;;1.24;100.00;95679.63;1052131;28;20078;-82
2020/12/15 00:55:56;;;;;;;21.73;15.98;;;;;;;1.27;100.00;95674.81;1052945;28;20102;-82
2020/12/15 00:56:27;;;;;;;22.65;17.05;;;;;;;1.26;100.00;95675.00;1052893;28;20028;-81
2020/12/15 00:56:57;;;;;;;21.88;17.30;;;;;;;1.25;100.00;95678.63;1053176;28;20019;-82
2020/12/15 00:57:28;;;;;;;22.83;17.35;;;;;;;1.27;100.00;95681.84;1057070;28;20376;-82
2020/12/15 00:57:58;;;;;;;20.95;15.05;;;;;;;1.26;100.00;95680.22;1057104;28;20019;-82
2020/12/15 00:58:28;;;;;;;19.65;15.32;;;;;;;1.23;100.00;95678.03;1057026;28;20104;-82
2020/12/15 00:58:59;;;;;;;20.13;15.38;;;;;;;1.22;100.00;95676.41;1057027;28;20365;-82
2020/12/15 00:59:29;;;;;;;22.27;15.63;;;;;;;1.17;100.00;95680.41;1053008;28;20012;-82
2020/12/15 01:00:01;;;;;;;21.50;15.65;;;;;;;1.12;100.00;95675.00;1053059;28;20366;-82
2020/12/15 01:00:31;;;;;;;19.23;14.85;;;;;;;1.17;100.00;95674.41;1052940;28;20042;-82
2020/12/15 01:01:04;;;;;;;18.42;14.77;;;;;;;1.20;100.00;95676.63;1052694;28;20030;-82
2020/12/15 01:01:34;;;;;;;20.08;15.93;;;;;;;1.14;100.00;95675.59;1052907;28;20032;-82
2020/12/15 01:02:04;;;;;;;17.83;14.25;;;;;;;1.20;100.00;95676.63;1052693;28;20020;-82
2020/12/15 01:02:35;;;;;;;18.52;13.73;;;;;;;1.14;100.00;95673.00;1052984;28;20396;-82
2020/12/15 01:03:11;;;;;;;17.30;14.05;;;;;;;1.22;100.00;95682.44;1057356;28;20540;-82
2020/12/15 01:03:41;;;;;;;21.48;15.00;;;;;;;1.27;100.00;95676.63;1057429;28;20392;-82
2020/12/15 01:04:11;;;;;;;34.50;13.50;;;;;;;1.29;100.00;95685.03;1056956;28;20026;-82
2020/12/15 01:04:42;;;;;;;22.33;14.10;;;;;;;1.27;100.00;95676.63;1057609;28;20023;-82
2020/12/15 01:05:12;;;;;;;21.30;13.95;;;;;;;1.25;100.00;95678.63;1057815;28;20023;-81
2020/12/15 01:05:45;;;;;;;17.67;14.02;;;;;;;1.25;100.00;95673.41;1058105;28;20020;-81
2020/12/15 01:06:16;;;;;;;26.80;15.38;;;;;;;1.20;100.00;95678.44;1054694;28;20130;-82
2020/12/15 01:06:49;;;;;;;34.58;15.88;;;;;;;1.07;100.00;95682.66;1057016;28;20031;-82
2020/12/15 01:07:19;;;;;;;21.77;14.82;;;;;;;1.11;100.00;95677.81;1056931;28;20464;-82
2020/12/15 01:07:50;;;;;;;18.27;13.65;;;;;;;1.07;100.00;95677.44;1057329;28;20053;-81
2020/12/15 01:08:21;;;;;;;21.88;15.30;;;;;;;1.14;100.00;95675.59;1054004;28;20055;-81
2020/12/15 01:08:51;;;;;;;17.15;14.20;;;;;;;1.17;100.00;95683.03;1053807;28;20540;-81
2020/12/15 01:09:22;;;;;;;18.27;14.43;;;;;;;1.16;100.00;95686.66;1057414;28;20510;-81
2020/12/15 01:09:53;;;;;;;18.40;14.30;;;;;;;1.16;100.00;95681.44;1057526;28;20027;-80
2020/12/15 01:10:24;;;;;;;19.63;14.30;;;;;;;1.18;100.00;95689.06;1056763;28;20469;-82
2020/12/15 01:10:54;;;;;;;15.77;13.05;;;;;;;1.16;100.00;95691.88;1056766;28;20016;-82
2020/12/15 01:11:29;;;;;;;17.42;14.65;;;;;;;1.14;100.00;95688.66;1056612;28;20016;-82
2020/12/15 01:11:59;;;;;;;17.40;13.07;;;;;;;1.10;100.00;95686.66;1057022;28;20012;-82
2020/12/15 01:12:30;;;;;;;19.13;15.18;;;;;;;1.16;100.00;95694.47;1056910;28;20081;-82
2020/12/15 01:13:00;;;;;;;17.90;14.48;;;;;;;1.20;100.00;95688.88;1056930;28;20064;-82
2020/12/15 01:13:30;;;;;;;17.38;13.60;;;;;;;1.20;100.00;95691.50;1056874;28;20036;-82
2020/12/15 01:14:02;;;;;;;17.90;14.18;;;;;;;1.10;100.00;95689.28;1056952;28;20034;-82
2020/12/15 01:14:33;;;;;;;19.38;13.32;;;;;;;1.08;100.00;95688.66;1056848;28;20436;-82
2020/12/15 01:15:03;;;;;;;14.27;11.85;;;;;;;1.07;100.00;95687.88;1057030;28;20035;-82
2020/12/15 01:15:33;;;;;;;17.08;13.35;;;;;;;1.09;100.00;95691.06;1057782;28;20031;-80
2020/12/15 01:16:05;;;;;;;16.42;13.35;;;;;;;1.21;100.00;95695.69;1057720;28;20056;-82
2020/12/15 01:16:35;;;;;;;20.35;13.68;;;;;;;1.14;100.00;95690.47;1056477;28;20047;-82
2020/12/15 01:17:07;;;;;;;17.75;13.30;;;;;;;1.16;100.00;95696.28;1057253;28;20016;-80
2020/12/15 01:17:38;;;;;;;25.85;13.50;;;;;;;1.17;100.00;95688.25;1057077;28;20384;-82
2020/12/15 01:18:09;;;;;;;19.08;14.07;;;;;;;1.19;100.00;95700.31;1057270;28;20015;-82
2020/12/15 01:18:40;;;;;;;16.42;13.55;;;;;;;1.17;100.00;95695.28;1056994;28;20077;-81
2020/12/15 01:19:11;;;;;;;18.60;13.95;;;;;;;1.19;100.00;95692.50;1057845;28;20376;-81
2020/12/15 01:19:42;;;;;;;18.95;13.43;;;;;;;1.17;100.00;95697.88;1057418;28;20019;-82
2020/12/15 01:20:13;;;;;;;54.22;14.95;;;;;;;1.14;100.00;95696.50;1056378;28;20106;-82
2020/12/15 01:20:43;;;;;;;55.40;16.20;;;;;;;1.05;100.00;95694.25;1056945;28;20024;-82
2020/12/15 01:21:14;;;;;;;23.40;14.15;;;;;;;1.03;100.00;95702.28;1057041;28;20016;-82
2020/12/15 01:21:45;;;;;;;23.55;13.88;;;;;;;0.99;100.00;95693.28;1056904;28;20479;-82
2020/12/15 01:22:16;;;;;;;46.55;14.40;;;;;;;1.06;100.00;95694.06;1056921;28;20031;-82
2020/12/15 01:22:46;;;;;;;40.58;14.05;;;;;;;1.04;100.00;95698.69;1057004;28;20047;-81
2020/12/15 01:23:16;;;;;;;21.35;14.40;;;;;;;1.03;100.00;95691.84;1056907;28;20535;-82
2020/12/15 01:23:47;;;;;;;23.95;15.73;;;;;;;0.95;100.00;95694.69;1057104;28;20023;-82
2020/12/15 01:24:17;;;;;;;30.33;15.50;;;;;;;0.98;100.00;95691.66;1052749;28;20081;-82
2020/12/15 01:24:48;;;;;;;26.58;16.05;;;;;;;1.00;100.00;95692.25;1052964;28;20085;-82
2020/12/15 01:25:18;;;;;;;20.52;14.00;;;;;;;0.95;100.00;95689.47;1057036;28;20387;-82
2020/12/15 01:25:48;;;;;;;24.92;14.80;;;;;;;0.92;100.00;95689.84;1056929;28;20479;-85
2020/12/15 01:26:20;;;;;;;18.27;14.13;;;;;;;0.99;100.00;95693.28;1056827;28;20019;-85
2020/12/15 01:26:50;;;;;;;25.85;14.55;;;;;;;0.94;100.00;95693.03;1056663;28;20023;-81
2020/12/15 01:27:20;;;;;;;25.00;15.10;;;;;;;0.95;100.00;95693.84;1056665;28;20019;-81
2020/12/15 01:27:51;;;;;;;27.75;16.13;;;;;;;0.97;100.00;95700.50;1056654;28;20423;-81
2020/12/15 01:28:21;;;;;;;19.00;14.57;;;;;;;1.06;100.00;95691.44;1056539;28;20092;-81
2020/12/15 01:28:52;;;;;;;32.60;15.93;;;;;;;0.98;100.00;95690.84;1053339;28;20593;-81
2020/12/15 01:29:22;;;;;;;18.27;14.10;;;;;;;0.97;100.00;95691.88;1052627;28;20028;-82
2020/12/15 01:29:53;;;;;;;20.00;15.70;;;;;;;1.03;100.00;95686.63;1052667;28;20479;-82
2020/12/15 01:30:23;;;;;;;18.13;14.43;;;;;;;1.06;100.00;95682.81;1051780;28;20042;-80
2020/12/15 01:30:53;;;;;;;28.83;16.70;;;;;;;1.00;100.00;95681.03;1052590;28;20020;-79
2020/12/15 01:31:27;;;;;;;22.70;15.38;;;;;;;0.91;100.00;95677.00;1052991;28;20496;-80
2020/12/15 01:32:01;;;;;;;22.83;16.08;;;;;;;0.86;100.00;95675.78;1053066;28;20027;-79
2020/12/15 01:32:33;;;;;;;24.58;15.63;;;;;;;0.89;100.00;95674.59;1052564;28;20373;-80
2020/12/15 01:33:04;;;;;;;19.65;15.10;;;;;;;0.90;100.00;95676.19;1056978;28;20039;-81
2020/12/15 01:33:35;;;;;;;22.48;14.52;;;;;;;0.93;100.00;95667.94;1053169;28;20084;-81
2020/12/15 01:34:05;;;;;;;27.02;15.20;;;;;;;0.97;100.00;95658.75;1057037;28;20016;-82
2020/12/15 01:34:36;;;;;;;21.67;14.15;;;;;;;0.96;100.00;95664.97;1056789;28;20035;-81
2020/12/15 01:35:06;;;;;;;22.00;14.55;;;;;;;0.95;100.00;95670.34;1056860;28;20034;-81
2020/12/15 01:35:36;;;;;;;28.20;15.23;;;;;;;0.87;100.00;95666.97;1056894;28;20042;-81
2020/12/15 01:36:07;;;;;;;21.02;14.73;;;;;;;0.90;100.00;95673.56;1056935;28;20389;-80
2020/12/15 01:36:37;;;;;;;22.48;14.13;;;;;;;0.91;100.00;95663.94;1056816;28;20469;-80
2020/12/15 01:37:08;;;;;;;19.92;14.13;;;;;;;0.94;100.00;95668.75;1056844;28;20004;-80
2020/12/15 01:37:39;;;;;;;22.75;13.60;;;;;;;0.98;100.00;95667.38;1055409;28;20024;-80
2020/12/15 01:38:09;;;;;;;21.02;14.20;;;;;;;0.93;100.00;95669.75;1052887;28;20420;-81
2020/12/15 01:38:43;;;;;;;52.42;15.98;;;;;;;0.88;100.00;95662.53;1052894;28;20031;-79
2020/12/15 01:39:13;;;;;;;32.45;15.50;;;;;;;0.92;100.00;95678.59;1052820;28;20011;-81
2020/12/15 01:39:43;;;;;;;19.95;14.10;;;;;;;0.98;100.00;95676.00;1052899;28;20039;-81
2020/12/15 01:40:14;;;;;;;23.40;14.32;;;;;;;1.03;100.00;95681.41;1052533;28;20024;-79
2020/12/15 01:40:51;;;;;;;24.73;13.98;;;;;;;1.01;100.00;95678.22;1052796;28;20020;-80
2020/12/15 01:41:21;;;;;;;25.52;13.98;;;;;;;0.99;100.00;95684.63;1052906;28;20027;-80
2020/12/15 01:41:52;;;;;;;27.15;14.57;;;;;;;0.91;100.00;95687.44;1053266;28;20016;-81
2020/12/15 01:42:22;;;;;;;16.85;13.70;;;;;;;0.98;100.00;95676.00;1056748;28;20088;-79
2020/12/15 01:42:53;;;;;;;17.58;13.63;;;;;;;1.05;100.00;95684.63;1056684;28;20112;-79
2020/12/15 01:43:23;;;;;;;20.30;13.82;;;;;;;1.04;100.00;95680.41;1056605;28;20110;-80
2020/12/15 01:43:58;;;;;;;21.55;15.02;;;;;;;0.99;100.00;95682.03;1056931;28;20019;-81
2020/12/15 01:44:28;;;;;;;18.17;13.27;;;;;;;1.03;100.00;95681.41;1056992;28;20076;-81
2020/12/15 01:44:58;;;;;;;20.98;13.98;;;;;;;1.01;100.00;95683.44;1056840;27;20031;-82
2020/12/15 01:45:29;;;;;;;16.95;13.65;;;;;;;1.00;100.00;95676.59;1056999;28;20050;-81
2020/12/15 01:46:00;;;;;;;23.15;14.57;;;;;;;1.02;100.00;95671.97;1052834;28;20480;-81
2020/12/15 01:46:30;;;;;;;21.48;13.57;;;;;;;1.03;100.00;95673.59;1048296;28;20119;-81
2020/12/15 01:47:01;;;;;;;34.05;15.75;;;;;;;0.94;100.00;95673.97;1052271;28;20023;-81
2020/12/15 01:47:31;;;;;;;27.52;14.77;;;;;;;0.90;100.00;95681.41;1048069;28;20033;-80
2020/12/15 01:48:02;;;;;;;17.30;12.57;;;;;;;0.99;100.00;95675.00;1048375;28;20028;-83
2020/12/15 01:48:32;;;;;;;24.23;13.73;;;;;;;0.90;100.00;95684.00;1052641;28;20035;-84
2020/12/15 01:49:02;;;;;;;22.60;13.75;;;;;;;0.92;100.00;95684.63;1052611;28;20016;-83
2020/12/15 01:49:33;;;;;;;20.42;14.73;;;;;;;0.91;100.00;95677.78;1052982;28;20098;-81
2020/12/15 01:50:03;;;;;;;32.28;14.57;;;;;;;0.82;100.00;95684.19;1048433;28;20485;-81
2020/12/15 01:50:34;;;;;;;34.33;15.05;;;;;;;0.80;100.00;95681.78;1048356;28;20048;-81
2020/12/15 01:51:04;;;;;;;34.63;15.13;;;;;;;0.81;100.00;95677.38;1044149;28;20029;-81
2020/12/15 01:51:35;;;;;;;37.83;16.08;;;;;;;0.74;100.00;95681.78;1044463;28;20035;-81
2020/12/15 01:52:05;;;;;;;47.55;16.50;;;;;;;0.71;100.00;95682.16;1052505;28;20012;-81
2020/12/15 01:52:36;;;;;;;35.35;16.55;;;;;;;0.72;100.00;95679.38;1048365;28;20032;-81
2020/12/15 01:53:10;;;;;;;28.23;15.57;;;;;;;0.80;100.00;95686.19;1044281;28;20025;-80
2020/12/15 01:53:40;;;;;;;20.58;13.52;;;;;;;0.86;100.00;95681.00;1040103;28;20033;-80
2020/12/15 01:54:11;;;;;;;34.50;14.55;;;;;;;0.83;100.00;95678.00;1036598;28;20073;-81
2020/12/15 01:54:41;;;;;;;29.67;15.40;;;;;;;0.87;100.00;95680.00;1037137;28;20032;-80
2020/12/15 01:55:13;;;;;;;24.42;15.52;;;;;;;0.87;100.00;95682.63;1040091;28;20540;-81
2020/12/15 01:55:43;;;;;;;24.70;14.30;;;;;;;0.90;100.00;95681.41;1040427;28;20033;-80
2020/12/15 01:56:14;;;;;;;30.83;14.65;;;;;;;0.89;100.00;95679.81;1040405;28;20029;-81
2020/12/15 01:56:44;;;;;;;43.95;16.67;;;;;;;0.89;100.00;95682.41;1041702;28;20033;-81
2020/12/15 01:57:15;;;;;;;44.75;17.58;;;;;;;0.89;100.00;95679.81;1043677;28;20021;-81
2020/12/15 01:57:47;;;;;;;32.97;15.48;;;;;;;0.84;100.00;95682.22;1041532;28;20025;-81
2020/12/15 01:58:17;;;;;;;35.40;15.40;;;;;;;0.87;100.00;95680.00;1045591;28;20025;-80
2020/12/15 01:58:48;;;;;;;25.75;13.85;;;;;;;0.90;100.00;95681.41;1051615;28;20412;-81
2020/12/15 01:59:19;;;;;;;25.33;14.32;;;;;;;0.90;100.00;95670.97;1053859;28;20012;-80
2020/12/15 01:59:50;;;;;;;43.78;16.38;;;;;;;0.86;100.00;95683.63;1054752;28;20055;-81
2020/12/15 02:00:21;;;;;;;40.50;15.98;;;;;;;0.88;100.00;95683.41;1058590;28;20019;-81
2020/12/15 02:00:51;;;;;;;38.25;14.75;;;;;;;0.85;100.00;95684.63;1054666;28;20020;-81
2020/12/15 02:01:22;;;;;;;86.53;18.75;;;;;;;0.77;100.00;95679.56;1055810;28;20016;-81
2020/12/15 02:01:52;;;;;;;25.83;14.77;;;;;;;0.78;100.00;95681.19;1058661;28;20345;-81
2020/12/15 02:02:23;;;;;;;26.30;14.38;;;;;;;0.87;100.00;95676.59;1056698;28;20020;-81
2020/12/15 02:02:53;;;;;;;25.08;14.88;;;;;;;0.91;100.00;95675.19;1057041;28;20020;-81
2020/12/15 02:03:23;;;;;;;28.52;15.30;;;;;;;0.87;100.00;95679.19;1056518;28;20012;-81
2020/12/15 02:03:54;;;;;;;24.33;14.13;;;;;;;0.86;100.00;95675.00;1054675;28;20035;-82
2020/12/15 02:04:24;;;;;;;37.33;15.85;;;;;;;0.87;100.00;95677.41;1058256;28;20008;-81
2020/12/15 02:04:55;;;;;;;23.80;14.23;;;;;;;0.92;100.00;95678.59;1054512;28;20077;-82
2020/12/15 02:05:25;;;;;;;21.00;15.18;;;;;;;0.91;100.00;95674.38;1052981;28;20019;-82
2020/12/15 02:05:56;;;;;;;26.25;13.43;;;;;;;0.92;100.00;95666.34;1052796;28;20025;-82
2020/12/15 02:06:26;;;;;;;21.13;13.25;;;;;;;0.95;100.00;95668.59;1052630;28;20020;-81
2020/12/15 02:06:57;;;;;;;28.42;14.73;;;;;;;0.96;100.00;95675.41;1052540;28;20020;-82
2020/12/15 02:07:27;;;;;;;64.68;17.02;;;;;;;0.93;100.00;95670.56;1054792;28;20020;-82
2020/12/15 02:07:58;;;;;;;41.35;15.95;;;;;;;0.80;100.00;95673.97;1052294;28;20031;-82
2020/12/15 02:08:28;;;;;;;45.85;15.98;;;;;;;0.72;100.00;95678.56;1056594;28;20101;-82
2020/12/15 02:08:58;;;;;;;38.72;16.05;;;;;;;0.78;100.00;95678.56;1056495;28;20032;-82
2020/12/15 02:09:29;;;;;;;32.10;15.25;;;;;;;0.75;100.00;95678.19;1056537;28;20510;-82
2020/12/15 02:09:59;;;;;;;24.50;14.07;;;;;;;0.86;100.00;95680.22;1056710;28;20688;-82
2020/12/15 02:10:30;;;;;;;22.80;14.73;;;;;;;0.84;100.00;95682.22;1056443;28;20019;-82
2020/12/15 02:11:00;;;;;;;19.08;14.23;;;;;;;0.83;100.00;95686.63;1052063;28;20024;-82
2020/12/15 02:11:30;;;;;;;50.70;17.27;;;;;;;0.81;100.00;95687.81;1050876;28;20024;-82
2020/12/15 02:12:01;;;;;;;21.55;13.48;;;;;;;0.86;100.00;95691.44;1048290;28;20029;-82
2020/12/15 02:12:31;;;;;;;23.58;14.90;;;;;;;0.88;100.00;95688.63;1045511;28;20063;-81
2020/12/15 02:13:02;;;;;;;24.63;15.82;;;;;;;0.90;100.00;95691.84;1048155;28;20047;-82
2020/12/15 02:13:32;;;;;;;27.60;16.02;;;;;;;0.84;100.00;95690.84;1048150;28;20063;-81
2020/12/15 02:14:03;;;;;;;26.08;17.17;;;;;;;0.81;100.00;95693.03;1044164;28;20028;-82
2020/12/15 02:14:33;;;;;;;31.25;16.25;;;;;;;0.82;100.00;95692.81;1052399;28;20074;-82
2020/12/15 02:15:04;;;;;;;28.65;17.25;;;;;;;0.84;100.00;95692.66;1060625;27;20029;-82
2020/12/15 02:15:34;;;;;;;30.38;16.88;;;;;;;0.77;100.00;95691.81;1055914;28;20019;-82
2020/12/15 02:16:06;;;;;;;34.53;16.85;;;;;;;0.70;100.00;95691.00;1056683;28;20024;-82
2020/12/15 02:16:38;;;;;;;32.60;16.25;;;;;;;0.70;100.00;95696.19;1056773;28;20468;-82
2020/12/15 02:17:10;;;;;;;48.15;17.77;;;;;;;0.65;100.00;95694.19;1051659;28;20047;-82
2020/12/15 02:17:40;;;;;;;56.00;18.10;;;;;;;0.65;100.00;95693.41;1044198;28;20414;-82
2020/12/15 02:18:11;;;;;;;21.05;14.93;;;;;;;0.75;100.00;95694.63;1045194;28;20021;-82
2020/12/15 02:18:41;;;;;;;27.30;16.30;;;;;;;0.75;100.00;95702.47;1048600;28;20020;-83
2020/12/15 02:19:15;;;;;;;39.97;17.58;;;;;;;0.80;100.00;95692.22;1052399;28;20020;-83
2020/12/15 02:19:46;;;;;;;40.15;17.25;;;;;;;0.70;100.00;95697.00;1056776;27;20095;-82
2020/12/15 02:20:16;;;;;;;31.98;16.98;;;;;;;0.75;100.00;95691.22;1056527;28;20020;-82
2020/12/15 02:20:46;;;;;;;44.42;18.38;;;;;;;0.80;100.00;95694.03;1056885;28;20015;-82
2020/12/15 02:21:17;;;;;;;32.35;16.58;;;;;;;0.75;100.00;95696.44;1055587;28;20024;-83
2020/12/15 02:21:51;;;;;;;31.35;15.27;;;;;;;0.82;100.00;95689.41;1052774;28;20020;-82